Time;durP1;ratioP1;P1;durP2;ratioP2;P2;SDS_P1;SDS_P2;PMS_P1;PMS_P2;Temp;Humidity;BMP_temperature;BMP_pressure;BME280_temperature;BME280_humidity;BME280_pressure;Samples;Min_cycle;Max_cycle;Signal;HPM_P1;HPM_P2
2023/06/08 00:00:56;;;;;;;2.42;1.15;;;15.80;85.40;;;;;;6276488;22;20365;-68
2023/06/08 00:03:26;;;;;;;2.83;1.23;;;15.90;84.90;;;;;;6275012;22;20380;-68
2023/06/08 00:05:53;;;;;;;2.85;1.30;;;15.90;85.10;;;;;;6275724;22;20008;-68
2023/06/08 00:08:23;;;;;;;3.92;1.60;;;16.00;85.00;;;;;;6275383;22;20030;-68
2023/06/08 00:10:51;;;;;;;1.53;1.17;;;16.00;84.90;;;;;;6275351;22;20438;-66
2023/06/08 00:13:19;;;;;;;4.85;1.33;;;16.00;84.70;;;;;;6274828;22;20123;-65
2023/06/08 00:15:46;;;;;;;2.42;1.50;;;16.10;84.90;;;;;;6275615;22;20153;-68
2023/06/08 00:18:13;;;;;;;4.30;1.50;;;16.10;84.70;;;;;;6275777;22;20110;-66
2023/06/08 00:20:41;;;;;;;5.97;1.85;;;16.10;84.60;;;;;;6275645;22;20374;-66
2023/06/08 00:23:08;;;;;;;5.30;2.00;;;16.20;84.40;;;;;;6248838;22;20069;-66
2023/06/08 00:25:36;;;;;;;7.85;2.00;;;16.20;84.40;;;;;;6275606;22;20406;-66
2023/06/08 00:28:03;;;;;;;4.10;1.63;;;16.20;84.40;;;;;;6274956;22;20015;-66
2023/06/08 00:30:31;;;;;;;5.53;1.60;;;16.30;84.40;;;;;;6248386;22;20419;-66
2023/06/08 00:32:58;;;;;;;6.70;2.00;;;16.30;84.10;;;;;;6248778;22;20112;-66
2023/06/08 00:35:26;;;;;;;7.63;1.75;;;16.30;83.60;;;;;;6274801;22;20119;-66
2023/06/08 00:37:54;;;;;;;7.07;2.20;;;16.30;83.90;;;;;;6248409;22;19996;-66
2023/06/08 00:40:22;;;;;;;4.55;1.85;;;16.30;83.90;;;;;;6275202;22;20011;-65
2023/06/08 00:42:49;;;;;;;3.08;1.42;;;16.30;83.90;;;;;;6275458;22;20015;-66
2023/06/08 00:45:17;;;;;;;4.75;1.80;;;16.30;83.90;;;;;;6274896;22;20000;-66
2023/06/08 00:47:44;;;;;;;2.30;1.50;;;16.30;83.80;;;;;;6275468;22;20007;-67
2023/06/08 00:50:12;;;;;;;1.98;1.50;;;16.30;83.80;;;;;;6248490;22;20006;-68
2023/06/08 00:52:39;;;;;;;1.90;1.33;;;16.30;83.40;;;;;;6248553;22;20035;-66
2023/06/08 00:55:08;;;;;;;3.47;1.50;;;16.30;83.40;;;;;;6223718;22;20079;-66
2023/06/08 00:57:36;;;;;;;5.07;1.50;;;16.30;83.40;;;;;;6275583;22;20010;-66
2023/06/08 01:00:11;;;;;;;2.40;1.40;;;16.30;83.40;;;;;;6223466;22;20324;-66
2023/06/08 01:02:38;;;;;;;4.50;1.20;;;16.30;83.20;;;;;;6249041;22;20012;-66
2023/06/08 01:05:07;;;;;;;3.45;1.27;;;16.30;83.10;;;;;;6275017;22;20014;-66
2023/06/08 01:08:08;;;;;;;2.30;1.38;;;16.30;83.00;;;;;;6275170;22;20118;-66
2023/06/08 01:11:04;;;;;;;2.58;1.10;;;16.30;82.80;;;;;;6274867;22;20128;-66
2023/06/08 01:14:01;;;;;;;4.05;1.33;;;16.40;82.60;;;;;;6242338;22;20042;-66
2023/06/08 01:16:32;;;;;;;2.47;1.20;;;16.40;82.70;;;;;;6219505;22;20347;-66
2023/06/08 01:19:01;;;;;;;4.10;1.50;;;16.50;82.90;;;;;;6248533;22;20488;-66
2023/06/08 01:21:33;;;;;;;2.47;1.27;;;16.60;83.00;;;;;;6223774;22;20007;-66
2023/06/08 01:24:23;;;;;;;4.78;1.60;;;16.70;82.60;;;;;;6275187;22;20063;-66
2023/06/08 01:26:50;;;;;;;4.68;1.20;;;16.70;82.80;;;;;;6248827;22;20000;-66
2023/06/08 01:29:21;;;;;;;3.78;1.10;;;16.70;82.20;;;;;;6223800;22;20004;-67
2023/06/08 01:31:49;;;;;;;3.67;1.60;;;16.80;81.90;;;;;;6275639;22;20006;-67
2023/06/08 01:34:16;;;;;;;2.15;1.10;;;16.80;82.10;;;;;;6274661;22;20087;-67
2023/06/08 01:37:11;;;;;;;3.53;1.30;;;16.80;81.80;;;;;;6275581;22;20019;-67
2023/06/08 01:39:59;;;;;;;3.42;1.20;;;16.80;81.30;;;;;;6275113;22;20035;-67
2023/06/08 01:42:27;;;;;;;3.55;1.33;;;16.80;81.40;;;;;;6223720;22;20066;-67
2023/06/08 01:44:58;;;;;;;2.30;1.27;;;16.80;81.10;;;;;;6223297;22;20496;-67
2023/06/08 01:47:29;;;;;;;2.95;1.45;;;16.80;81.00;;;;;;6275108;22;20000;-67
2023/06/08 01:49:56;;;;;;;3.92;1.40;;;16.80;81.30;;;;;;6224022;22;20031;-67
2023/06/08 01:52:24;;;;;;;1.80;1.17;;;16.80;80.90;;;;;;6248843;22;20019;-67
2023/06/08 01:54:51;;;;;;;4.13;1.38;;;16.80;80.90;;;;;;6275205;22;20003;-67
2023/06/08 01:57:19;;;;;;;3.20;1.20;;;16.80;81.10;;;;;;6274760;22;20003;-67
2023/06/08 01:59:46;;;;;;;2.95;1.27;;;16.80;81.10;;;;;;6275720;22;20026;-67
2023/06/08 02:02:14;;;;;;;1.75;1.10;;;16.80;81.10;;;;;;6276556;22;20396;-67
2023/06/08 02:04:41;;;;;;;2.70;1.10;;;16.80;81.00;;;;;;6277115;22;20053;-67
2023/06/08 02:07:08;;;;;;;2.17;1.20;;;16.70;80.90;;;;;;6276747;22;20000;-67
2023/06/08 02:09:36;;;;;;;1.73;1.25;;;16.80;81.00;;;;;;6276676;22;19995;-67
2023/06/08 02:12:06;;;;;;;1.58;1.10;;;16.70;80.90;;;;;;6277070;22;20044;-66
2023/06/08 02:14:34;;;;;;;2.75;1.27;;;16.70;80.70;;;;;;6276961;22;20043;-67
2023/06/08 02:17:03;;;;;;;4.20;1.33;;;16.70;80.70;;;;;;6276362;22;20008;-67
2023/06/08 02:19:31;;;;;;;1.88;1.25;;;16.70;80.50;;;;;;6276590;22;20307;-67
2023/06/08 02:21:59;;;;;;;3.70;1.52;;;16.70;80.50;;;;;;6276055;22;20058;-67
2023/06/08 02:24:27;;;;;;;1.92;1.25;;;16.70;80.50;;;;;;6249817;22;20385;-67
2023/06/08 02:26:57;;;;;;;3.30;1.30;;;16.70;80.50;;;;;;6276791;22;20008;-67
2023/06/08 02:29:26;;;;;;;4.65;1.30;;;16.70;80.50;;;;;;6276684;22;20000;-67
2023/06/08 02:31:53;;;;;;;3.75;1.30;;;16.70;80.40;;;;;;6276677;22;20011;-67
2023/06/08 02:34:21;;;;;;;3.08;1.30;;;16.70;80.50;;;;;;6276492;22;20335;-67
2023/06/08 02:36:49;;;;;;;4.28;1.70;;;16.70;80.30;;;;;;6276889;22;20438;-66
2023/06/08 02:39:16;;;;;;;2.55;1.35;;;16.70;80.40;;;;;;6276552;22;20067;-67
2023/06/08 02:41:44;;;;;;;8.27;2.75;;;16.70;80.60;;;;;;6276661;22;20077;-67
2023/06/08 02:44:11;;;;;;;7.15;1.92;;;16.70;80.70;;;;;;6277074;22;20015;-67
2023/06/08 02:46:39;;;;;;;2.05;1.40;;;16.70;80.70;;;;;;6276425;22;20015;-67
2023/06/08 02:49:06;;;;;;;2.10;1.35;;;16.80;80.40;;;;;;6249391;22;20074;-67
2023/06/08 02:51:35;;;;;;;2.05;0.95;;;16.80;80.10;;;;;;6276860;22;20000;-67
2023/06/08 02:54:03;;;;;;;3.15;1.40;;;16.80;80.20;;;;;;6249564;22;20011;-67
2023/06/08 02:56:30;;;;;;;4.05;1.27;;;16.90;80.20;;;;;;6276780;22;20003;-66
2023/06/08 02:58:58;;;;;;;2.97;1.30;;;16.90;80.20;;;;;;6276143;22;20007;-67
2023/06/08 03:01:30;;;;;;;2.75;1.33;;;16.80;80.00;;;;;;6276324;22;19999;-67
2023/06/08 03:03:57;;;;;;;4.88;1.45;;;16.90;80.10;;;;;;6276523;22;20038;-67
2023/06/08 03:06:26;;;;;;;3.70;1.50;;;17.00;79.90;;;;;;6275959;22;20002;-67
2023/06/08 03:08:54;;;;;;;3.55;2.05;;;17.00;80.00;;;;;;6275971;22;20006;-67
2023/06/08 03:11:22;;;;;;;50.47;18.08;;;17.00;80.20;;;;;;6275631;22;20114;-66
2023/06/08 03:13:50;;;;;;;20.63;8.50;;;17.00;80.20;;;;;;6276165;22;20015;-67
2023/06/08 03:16:20;;;;;;;12.77;5.53;;;17.00;80.80;;;;;;6276083;22;20012;-67
2023/06/08 03:18:47;;;;;;;;;;;16.90;81.40;;;;;;6276295;22;20319;-67
2023/06/08 03:21:14;;;;;;;4.38;2.00;;;16.90;81.80;;;;;;6275648;22;19906;-67
2023/06/08 03:23:42;;;;;;;20.52;7.75;;;16.80;82.10;;;;;;6249121;22;20074;-67
2023/06/08 03:26:10;;;;;;;8.00;3.08;;;16.80;82.50;;;;;;6276292;22;19996;-67
2023/06/08 03:28:37;;;;;;;2.80;1.60;;;16.80;82.80;;;;;;6275976;22;20083;-67
2023/06/08 03:31:05;;;;;;;3.97;1.40;;;16.80;82.50;;;;;;6276294;22;20060;-67
2023/06/08 03:33:32;;;;;;;2.67;1.50;;;16.80;82.80;;;;;;6276317;22;20075;-67
2023/06/08 03:36:00;;;;;;;3.38;1.40;;;16.70;82.80;;;;;;6249134;22;20101;-67
2023/06/08 03:38:27;;;;;;;2.22;1.50;;;16.70;83.10;;;;;;6276406;22;20023;-67
2023/06/08 03:40:55;;;;;;;3.42;1.30;;;16.70;83.40;;;;;;6276123;22;20004;-67
2023/06/08 03:43:22;;;;;;;4.30;1.42;;;16.70;83.70;;;;;;6276039;22;20011;-67
2023/06/08 03:45:50;;;;;;;1.27;1.05;;;16.70;83.90;;;;;;6275528;22;20443;-67
2023/06/08 03:48:17;;;;;;;3.47;1.20;;;16.70;84.40;;;;;;6276003;22;20008;-68
2023/06/08 03:50:45;;;;;;;4.15;1.70;;;16.50;85.10;;;;;;6249282;22;19996;-67
2023/06/08 03:53:12;;;;;;;4.68;1.63;;;16.50;85.80;;;;;;6275810;22;20004;-67
2023/06/08 03:55:40;;;;;;;2.65;1.50;;;16.30;86.40;;;;;;6275828;22;20311;-67
2023/06/08 03:58:07;;;;;;;3.25;1.60;;;16.20;86.70;;;;;;6275447;22;20010;-67
2023/06/08 04:00:35;;;;;;;3.20;1.50;;;16.20;87.30;;;;;;6275554;22;20386;-67
2023/06/08 04:03:03;;;;;;;3.72;1.40;;;16.10;87.50;;;;;;6275846;22;20012;-68
2023/06/08 04:05:30;;;;;;;7.20;1.63;;;16.10;87.90;;;;;;6276122;22;20003;-67
2023/06/08 04:08:02;;;;;;;3.42;1.40;;;16.00;88.10;;;;;;6248872;22;20008;-67
2023/06/08 04:10:29;;;;;;;2.85;1.50;;;16.00;88.60;;;;;;6275785;22;20356;-67
2023/06/08 04:12:58;;;;;;;3.10;1.20;;;15.90;88.30;;;;;;6276086;22;20003;-67
2023/06/08 04:15:25;;;;;;;4.35;1.30;;;15.80;88.80;;;;;;6245050;23;20350;-67
2023/06/08 04:17:53;;;;;;;2.10;1.30;;;15.80;88.90;;;;;;6244856;23;20004;-67
2023/06/08 04:20:20;;;;;;;2.90;1.45;;;15.80;88.90;;;;;;6218560;23;20008;-68
2023/06/08 04:22:48;;;;;;;5.25;1.48;;;15.80;89.00;;;;;;6244349;23;20485;-68
2023/06/08 04:25:15;;;;;;;1.27;1.08;;;15.80;89.20;;;;;;6244907;23;20023;-68
2023/06/08 04:27:43;;;;;;;5.35;1.20;;;15.80;89.00;;;;;;6244875;23;20000;-68
2023/06/08 04:30:11;;;;;;;1.88;1.65;;;15.80;89.00;;;;;;6244781;23;20418;-68
2023/06/08 04:32:38;;;;;;;3.50;1.38;;;15.70;89.20;;;;;;6244648;23;20004;-68
2023/06/08 04:35:06;;;;;;;2.85;1.40;;;15.70;89.20;;;;;;6245052;23;20008;-66
2023/06/08 04:37:33;;;;;;;2.75;0.90;;;15.70;89.20;;;;;;6244383;23;20482;-66
2023/06/08 04:40:01;;;;;;;1.92;1.23;;;15.80;88.90;;;;;;6244901;23;20027;-66
2023/06/08 04:42:29;;;;;;;2.42;1.20;;;15.70;89.00;;;;;;6244653;23;20431;-66
2023/06/08 04:45:00;;;;;;;2.83;1.40;;;15.70;89.20;;;;;;6244497;23;20058;-66
2023/06/08 04:47:29;;;;;;;5.05;1.80;;;15.70;89.10;;;;;;6219317;23;20000;-66
2023/06/08 04:49:57;;;;;;;3.15;1.10;;;15.70;89.10;;;;;;6244627;23;20024;-65
2023/06/08 04:52:26;;;;;;;3.00;1.50;;;15.70;88.60;;;;;;6244044;23;20324;-66
2023/06/08 04:54:53;;;;;;;2.53;1.25;;;15.70;89.00;;;;;;6244782;23;20003;-67
2023/06/08 04:57:22;;;;;;;3.65;1.70;;;15.70;88.90;;;;;;6244617;23;20035;-67
2023/06/08 04:59:50;;;;;;;1.83;1.60;;;15.70;89.00;;;;;;6244661;23;20079;-67
2023/06/08 05:02:17;;;;;;;6.93;2.50;;;15.70;88.90;;;;;;6244555;23;20016;-67
2023/06/08 05:04:45;;;;;;;3.00;1.80;;;15.70;89.30;;;;;;6244292;23;20012;-67
2023/06/08 05:07:12;;;;;;;2.42;1.35;;;15.70;89.00;;;;;;6244684;23;20007;-67
2023/06/08 05:09:40;;;;;;;2.17;1.60;;;15.70;89.10;;;;;;6244455;23;19997;-67
2023/06/08 05:12:07;;;;;;;2.10;1.48;;;15.70;89.40;;;;;;6244393;23;20036;-67
2023/06/08 05:14:35;;;;;;;3.17;1.80;;;15.60;89.20;;;;;;6265701;22;20018;-67
2023/06/08 05:17:02;;;;;;;2.35;1.60;;;15.60;89.60;;;;;;6275602;22;20102;-67
2023/06/08 05:19:30;;;;;;;3.40;1.73;;;15.60;89.80;;;;;;6275113;22;20418;-67
2023/06/08 05:21:57;;;;;;;3.55;1.70;;;15.60;90.00;;;;;;6275291;22;20389;-67
2023/06/08 05:24:25;;;;;;;2.10;1.33;;;15.60;89.90;;;;;;6275156;22;20003;-66
2023/06/08 05:26:52;;;;;;;2.15;1.65;;;15.60;89.90;;;;;;6275110;22;20095;-67
2023/06/08 05:29:20;;;;;;;2.92;1.40;;;15.60;90.00;;;;;;6275115;22;20011;-67
2023/06/08 05:31:49;;;;;;;3.30;1.30;;;15.70;89.90;;;;;;6275127;22;20008;-67
2023/06/08 05:34:16;;;;;;;3.55;1.40;;;15.60;89.40;;;;;;6275334;22;20004;-68
2023/06/08 05:36:43;;;;;;;1.38;1.27;;;15.60;90.00;;;;;;6277117;22;20023;-66
2023/06/08 05:39:11;;;;;;;2.70;1.15;;;15.60;89.90;;;;;;6276847;22;20003;-66
2023/06/08 05:41:39;;;;;;;1.27;1.00;;;15.60;89.80;;;;;;6277207;22;20007;-66
2023/06/08 05:44:06;;;;;;;1.92;1.20;;;15.70;89.30;;;;;;6277148;22;20011;-66
2023/06/08 05:46:33;;;;;;;3.58;1.33;;;15.60;89.20;;;;;;6276988;22;20068;-65
2023/06/08 05:49:01;;;;;;;3.33;1.33;;;15.70;89.40;;;;;;6276956;22;19999;-66
2023/06/08 05:51:28;;;;;;;1.60;1.20;;;15.70;89.10;;;;;;6276755;22;20346;-66
2023/06/08 05:53:55;;;;;;;2.47;1.30;;;15.70;88.80;;;;;;6276509;22;20004;-66
2023/06/08 05:56:23;;;;;;;1.55;1.23;;;15.70;89.00;;;;;;6249729;22;20011;-66
2023/06/08 05:58:50;;;;;;;2.15;1.25;;;15.70;88.70;;;;;;6276290;22;20004;-66
2023/06/08 06:01:19;;;;;;;2.72;1.52;;;15.70;88.70;;;;;;6276384;22;20008;-66
2023/06/08 06:03:46;;;;;;;2.28;1.20;;;15.80;88.60;;;;;;6250474;22;19999;-67
2023/06/08 06:06:14;;;;;;;5.57;1.60;;;15.80;87.70;;;;;;6249541;22;20065;-66
2023/06/08 06:08:41;;;;;;;3.08;1.52;;;15.80;87.70;;;;;;6276988;22;20000;-67
2023/06/08 06:11:09;;;;;;;3.65;1.48;;;15.80;87.50;;;;;;6250033;22;20393;-67
2023/06/08 06:13:36;;;;;;;3.35;1.38;;;15.80;87.60;;;;;;6276793;22;20007;-66
2023/06/08 06:16:03;;;;;;;1.90;1.30;;;15.80;86.90;;;;;;6276285;22;20082;-66
2023/06/08 06:18:31;;;;;;;1.73;1.20;;;16.00;87.10;;;;;;6276473;22;20339;-66
2023/06/08 06:20:58;;;;;;;1.48;1.25;;;15.90;87.00;;;;;;6276248;22;20008;-66
2023/06/08 06:23:26;;;;;;;1.77;1.05;;;15.90;87.20;;;;;;6276515;22;20096;-66
2023/06/08 06:25:53;;;;;;;3.80;1.80;;;16.00;86.70;;;;;;6276364;22;20031;-66
2023/06/08 06:28:20;;;;;;;1.60;1.30;;;16.00;86.90;;;;;;6276346;22;20007;-67
2023/06/08 06:30:48;;;;;;;4.15;1.13;;;16.00;86.60;;;;;;6276910;22;20061;-66
2023/06/08 06:33:15;;;;;;;1.98;1.17;;;16.00;86.20;;;;;;6275748;22;20362;-66
2023/06/08 06:35:43;;;;;;;1.98;1.60;;;16.00;86.20;;;;;;6276149;22;20004;-67
2023/06/08 06:38:10;;;;;;;2.80;1.30;;;16.10;86.00;;;;;;6275785;22;20494;-66
2023/06/08 06:40:37;;;;;;;2.25;1.50;;;16.10;86.30;;;;;;6275512;22;20004;-68
2023/06/08 06:43:05;;;;;;;1.80;1.35;;;16.10;86.20;;;;;;6273001;22;20449;-68
2023/06/08 06:45:32;;;;;;;2.05;1.40;;;16.10;86.30;;;;;;6273297;22;20003;-67
2023/06/08 06:48:00;;;;;;;5.25;1.55;;;16.10;86.40;;;;;;6273125;22;20074;-67
2023/06/08 06:50:28;;;;;;;1.45;1.10;;;16.10;86.00;;;;;;6273089;22;20322;-66
2023/06/08 06:52:55;;;;;;;3.85;2.70;;;16.10;85.70;;;;;;6273326;22;20516;-65
2023/06/08 06:55:22;;;;;;;3.30;2.17;;;16.20;85.90;;;;;;6272729;22;20004;-66
2023/06/08 06:57:50;;;;;;;3.97;2.10;;;16.10;86.20;;;;;;6272811;22;20082;-65
2023/06/08 07:00:19;;;;;;;2.47;1.73;;;16.20;86.10;;;;;;6272533;22;20108;-66
2023/06/08 07:02:47;;;;;;;2.90;1.42;;;16.20;85.30;;;;;;6273374;22;20087;-66
2023/06/08 07:05:14;;;;;;;3.40;1.42;;;16.20;85.50;;;;;;6272326;22;20027;-66
2023/06/08 07:07:42;;;;;;;2.53;1.35;;;16.20;85.60;;;;;;6273131;22;20007;-66
2023/06/08 07:10:09;;;;;;;2.13;1.30;;;16.20;85.70;;;;;;6272666;22;20079;-66
2023/06/08 07:12:37;;;;;;;2.35;1.63;;;16.20;85.60;;;;;;6272652;22;20335;-67
2023/06/08 07:15:05;;;;;;;1.80;1.35;;;16.20;85.70;;;;;;6272147;22;20023;-66
2023/06/08 07:17:32;;;;;;;2.42;1.50;;;16.20;85.60;;;;;;6272377;22;20095;-66
2023/06/08 07:20:00;;;;;;;2.05;1.40;;;16.20;85.70;;;;;;6272672;22;20006;-66
2023/06/08 07:22:28;;;;;;;1.65;1.42;;;16.20;85.60;;;;;;6270050;22;20087;-66
2023/06/08 07:24:55;;;;;;;3.08;1.50;;;16.20;85.40;;;;;;6272496;22;20007;-67
2023/06/08 07:27:22;;;;;;;3.53;1.70;;;16.20;85.50;;;;;;6272282;22;20508;-66
2023/06/08 07:29:51;;;;;;;2.63;1.40;;;16.20;85.60;;;;;;6272042;22;20003;-66
2023/06/08 07:32:18;;;;;;;2.55;1.77;;;16.20;85.60;;;;;;6272654;22;20062;-66
2023/06/08 07:34:47;;;;;;;5.35;1.98;;;16.20;85.40;;;;;;6272655;22;20066;-68
2023/06/08 07:37:14;;;;;;;2.00;1.38;;;16.20;85.40;;;;;;6272604;22;20311;-68
2023/06/08 07:39:42;;;;;;;2.72;1.70;;;16.10;85.20;;;;;;6272160;22;19999;-66
2023/06/08 07:42:09;;;;;;;2.60;1.45;;;16.20;85.20;;;;;;6272130;22;20007;-67
2023/06/08 07:44:37;;;;;;;2.50;1.60;;;16.10;85.20;;;;;;6272849;22;20070;-67
2023/06/08 07:47:04;;;;;;;3.95;1.60;;;16.10;85.10;;;;;;6272929;22;20014;-67
2023/06/08 07:49:32;;;;;;;5.72;1.80;;;16.10;84.90;;;;;;6271822;22;20014;-67
2023/06/08 07:51:59;;;;;;;2.95;1.60;;;16.10;85.10;;;;;;6271984;22;20304;-68
2023/06/08 07:54:27;;;;;;;2.40;1.60;;;16.00;85.00;;;;;;6271625;22;20311;-68
2023/06/08 07:56:55;;;;;;;1.98;1.40;;;16.10;85.00;;;;;;6271796;22;20011;-67
2023/06/08 07:59:22;;;;;;;3.17;1.58;;;16.00;85.00;;;;;;6271854;22;20003;-67
2023/06/08 08:01:49;;;;;;;6.20;2.60;;;16.00;84.90;;;;;;6272379;22;20008;-68
2023/06/08 08:04:17;;;;;;;3.45;2.03;;;16.00;85.00;;;;;;6270438;22;20011;-68
2023/06/08 08:06:44;;;;;;;2.58;1.98;;;16.00;84.90;;;;;;6271250;22;20022;-66
2023/06/08 08:09:12;;;;;;;5.03;2.70;;;16.00;84.80;;;;;;6270494;22;20004;-66
2023/06/08 08:11:39;;;;;;;3.13;1.67;;;16.00;85.00;;;;;;6271963;22;20429;-66
2023/06/08 08:14:09;;;;;;;4.53;1.90;;;16.00;84.60;;;;;;6272183;22;20020;-66
2023/06/08 08:16:38;;;;;;;1.90;1.40;;;15.90;84.50;;;;;;6271599;22;20011;-66
2023/06/08 08:19:05;;;;;;;2.45;1.42;;;16.00;84.50;;;;;;6271527;22;20533;-67
2023/06/08 08:21:33;;;;;;;3.28;1.52;;;16.00;84.60;;;;;;6269514;22;20011;-67
2023/06/08 08:24:01;;;;;;;1.77;1.38;;;16.00;84.50;;;;;;6272392;22;20065;-66
2023/06/08 08:26:29;;;;;;;2.55;1.50;;;15.90;84.50;;;;;;6271858;22;20011;-66
2023/06/08 08:28:59;;;;;;;3.53;1.70;;;16.00;84.40;;;;;;6271562;22;20390;-66
2023/06/08 08:31:26;;;;;;;2.92;1.70;;;16.00;84.30;;;;;;6244150;22;20011;-67
2023/06/08 08:33:54;;;;;;;2.38;1.38;;;15.90;84.30;;;;;;6269830;22;20107;-67
2023/06/08 08:36:21;;;;;;;2.53;1.50;;;15.90;84.30;;;;;;6271796;22;20007;-66
2023/06/08 08:38:48;;;;;;;2.25;1.70;;;15.90;84.10;;;;;;6271803;22;20074;-66
2023/06/08 08:41:17;;;;;;;4.30;1.52;;;15.90;84.10;;;;;;6271143;22;20006;-66
2023/06/08 08:44:03;;;;;;;2.15;1.40;;;15.90;84.00;;;;;;6245418;22;20343;-66
2023/06/08 12:42:10;;;;;;;6.05;2.30;;;14.10;79.10;;;;;;6271694;22;20081;-65
2023/06/08 12:44:37;;;;;;;6.22;2.17;;;14.10;78.60;;;;;;6274101;22;20419;-65
2023/06/08 12:47:05;;;;;;;10.20;3.60;;;14.10;78.10;;;;;;6248470;22;20320;-66
2023/06/08 12:49:33;;;;;;;5.90;2.90;;;13.90;80.60;;;;;;6274515;22;20004;-66
2023/06/08 12:52:00;;;;;;;6.72;2.05;;;13.90;80.60;;;;;;6275299;22;20003;-68
2023/06/08 12:54:28;;;;;;;9.73;2.40;;;13.80;78.90;;;;;;6275084;22;20000;-68
2023/06/08 12:56:55;;;;;;;4.05;1.70;;;13.80;79.00;;;;;;6248845;22;20000;-67
2023/06/08 12:59:22;;;;;;;5.50;2.13;;;13.80;78.20;;;;;;6274734;22;20019;-66
2023/06/08 13:01:50;;;;;;;3.65;1.50;;;13.80;78.00;;;;;;6275322;22;20366;-65
2023/06/08 13:04:17;;;;;;;2.25;1.45;;;13.80;77.40;;;;;;6274632;22;20084;-65
2023/06/08 13:06:45;;;;;;;6.15;1.50;;;13.70;76.70;;;;;;6274628;22;20020;-65
2023/06/08 13:09:12;;;;;;;2.10;1.20;;;13.70;76.50;;;;;;6248276;22;20008;-65
2023/06/08 13:11:40;;;;;;;3.13;1.60;;;13.70;76.40;;;;;;6248791;22;20004;-66
2023/06/08 13:14:07;;;;;;;4.25;1.73;;;13.70;76.60;;;;;;6275583;22;20134;-65
2023/06/08 13:16:35;;;;;;;2.33;1.30;;;13.70;76.40;;;;;;6273787;22;20023;-65
2023/06/08 13:19:02;;;;;;;2.72;1.40;;;13.80;76.10;;;;;;6248272;22;20026;-66
2023/06/08 13:21:31;;;;;;;1.55;1.23;;;13.70;76.00;;;;;;6274958;22;20007;-65
2023/06/08 13:24:01;;;;;;;2.30;1.25;;;13.70;75.80;;;;;;6275440;22;20014;-65
2023/06/08 13:26:28;;;;;;;3.65;1.40;;;13.70;75.80;;;;;;6274596;22;20275;-65
2023/06/08 13:28:56;;;;;;;2.85;1.35;;;13.60;77.40;;;;;;6247573;22;20091;-65
2023/06/08 13:31:25;;;;;;;3.05;1.40;;;13.60;76.50;;;;;;6275217;22;20004;-66
2023/06/08 13:33:52;;;;;;;2.03;1.30;;;13.60;75.80;;;;;;6275620;22;20004;-65
2023/06/08 13:36:20;;;;;;;2.58;1.25;;;13.50;74.90;;;;;;6274815;22;20345;-65
2023/06/08 13:38:48;;;;;;;1.55;1.40;;;13.50;77.40;;;;;;6275756;22;20065;-66
